Language: 


Des rapports , des résumés tant et plus, au choix de chacun....


Données Historiques de Météogheer
Journalier Rapport pour Novembre 23, 2017 Unitée:  Impériale    Métrique   Les deux
Suivant Jour »
Journalier Hebdomadaire Mensuel Annuel Sur mesure
  Max: Min: Moyenne:
Température: 59 °F 32 °F 52.7 °F
Point de rosée: 57.2 °F 42.8 °F 47.1 °F
Humidité: 98% 0% 80%
Vent: 26.6mph 0mph 9.3mph
Rafales: 30.4mph - -
Vent- - SSW
Pression: 29.8 in 0 in -
Pluie: 0.15 in    
Historical Graphs
 
 
Données tabulaires pour Novembre 23, 2017
Heure Température Point de rosée Pression Vent Vent Rafales Humidité Pluie Taux (Horaire) Conditions
00:01 52.2 °F 44.6 °F 29.5 in SSW 3.1 mph 13 mph 72% 0 in
00:11 52.5 °F 42.8 °F 29.5 in South 9.8 mph 12.5 mph 71% 0 in
00:16 52.5 °F 42.8 °F 29.5 in SSW 10.7 mph 12.5 mph 71% 0 in
00:21 52.7 °F 44.6 °F 29.5 in South 13.2 mph 13.6 mph 71% 0 in
00:26 52.7 °F 44.6 °F 29.4 in SSW 10.3 mph 15.2 mph 71% 0 in
00:31 52.9 °F 42.8 °F 29.4 in South 11 mph 15.2 mph 70% 0 in
00:36 52.9 °F 42.8 °F 29.4 in South 7.4 mph 14.5 mph 70% 0 in
00:41 53.1 °F 42.8 °F 29.4 in SSW 11 mph 15.2 mph 70% 0 in
00:46 53.1 °F 42.8 °F 29.4 in South 12.5 mph 15.2 mph 69% 0 in
00:51 53.1 °F 42.8 °F 29.4 in South 6.5 mph 13.2 mph 69% 0 in
00:56 53.1 °F 42.8 °F 29.4 in SSW 5.4 mph 15.4 mph 69% 0 in
01:06 53.2 °F 42.8 °F 29.4 in SSW 13 mph 13.6 mph 69% 0 in
01:11 53.2 °F 42.8 °F 29.4 in SW 10.5 mph 16.1 mph 68% 0 in
01:16 53.2 °F 42.8 °F 29.4 in South 6.5 mph 16.1 mph 68% 0 in
01:26 53.2 °F 42.8 °F 29.4 in South 15.9 mph 19.7 mph 68% 0 in
01:31 53.2 °F 42.8 °F 29.4 in South 11 mph 19.7 mph 68% 0 in
01:41 53.6 °F 42.8 °F 29.4 in South 7.4 mph 17.4 mph 66% 0 in
01:46 53.4 °F 42.8 °F 29.4 in South 6 mph 14.5 mph 67% 0 in
01:51 53.4 °F 42.8 °F 29.4 in South 10.3 mph 14.1 mph 67% 0 in
02:01 53.6 °F 42.8 °F 29.4 in SSW 7.4 mph 17 mph 66% 0 in
02:06 53.6 °F 42.8 °F 29.4 in South 10.5 mph 15.2 mph 66% 0 in
02:11 53.8 °F 42.8 °F 29.4 in SSW 7.4 mph 15.2 mph 65% 0 in
02:21 54.1 °F 42.8 °F 29.4 in SSW 12.1 mph 19.5 mph 64% 0 in
02:27 54.3 °F 42.8 °F 29.4 in SSW 12.8 mph 24.2 mph 64% 0 in
02:32 54.3 °F 42.8 °F 29.4 in South 17.2 mph 24.2 mph 63% 0 in
02:37 54.3 °F 42.8 °F 29.4 in South 14.5 mph 19.5 mph 63% 0 in
02:57 54.1 °F 42.8 °F 29.4 in South 10.5 mph 19.7 mph 64% 0 in
03:02 32 °F 42.8 °F 0 in SSW 10.1 mph 22.4 mph 0% 0 in
03:17 54.5 °F 42.8 °F 29.4 in SSW 11 mph 19.5 mph 63% 0 in
03:22 54.5 °F 42.8 °F 29.4 in SSW 10.7 mph 19.2 mph 64% 0 in
03:27 54.3 °F 42.8 °F 29.4 in SSW 11.2 mph 19.2 mph 64% 0 in
03:32 54.3 °F 42.8 °F 29.4 in South 13.2 mph 19.7 mph 64% 0 in
03:37 54.3 °F 42.8 °F 29.4 in SSW 12.3 mph 19.7 mph 65% 0 in
03:42 54.3 °F 42.8 °F 29.4 in South 12.8 mph 16.3 mph 65% 0 in
03:52 54.3 °F 42.8 °F 29.4 in South 17.9 mph 23.5 mph 65% 0 in
04:02 54.5 °F 44.6 °F 29.4 in SSW 8.7 mph 22.1 mph 66% 0 in
04:07 54.5 °F 44.6 °F 29.4 in SW 11 mph 22.1 mph 66% 0 in
04:13 54.3 °F 42.8 °F 29.4 in SSW 16.8 mph 21.5 mph 66% 0 in
04:19 54.3 °F 42.8 °F 29.4 in South 11.9 mph 21.5 mph 66% 0 in
04:20 54.3 °F 42.8 °F 29.4 in South 15.4 mph 21.5 mph 66% 0 in
04:25 54.3 °F 42.8 °F 29.4 in SSW 10.1 mph 17.7 mph 66% 0 in
04:26 54.3 °F 42.8 °F 29.4 in SSW 13.2 mph 17.7 mph 66% 0 in
04:31 54.3 °F 44.6 °F 29.4 in SSW 16.1 mph 22.1 mph 67% 0 in
04:34 54.3 °F 42.8 °F 29.4 in SSW 14.8 mph 22.1 mph 66% 0 in
04:39 54.3 °F 44.6 °F 29.4 in South 10.7 mph 22.1 mph 67% 0 in
04:49 54.1 °F 44.6 °F 29.4 in SSW 13.6 mph 17.7 mph 67% 0 in
04:54 54 °F 44.6 °F 29.4 in South 9.6 mph 20.6 mph 68% 0 in
04:59 53.8 °F 44.6 °F 29.4 in South 21.9 mph 21.9 mph 68% 0 in
05:00 53.8 °F 44.6 °F 29.4 in SSW 11 mph 21.9 mph 68% 0 in
05:15 53.6 °F 44.6 °F 29.4 in SSW 14.8 mph 19.9 mph 69% 0 in
05:20 53.6 °F 44.6 °F 29.4 in South 15.2 mph 19.9 mph 69% 0 in
05:30 54 °F 44.6 °F 29.4 in SSW 15.2 mph 22.1 mph 69% 0 in
05:35 53.8 °F 44.6 °F 29.4 in South 15.2 mph 22.1 mph 69% 0 in
05:40 54 °F 44.6 °F 29.4 in South 11.9 mph 20.6 mph 69% 0 in
05:45 54 °F 44.6 °F 29.4 in South 11.9 mph 22.1 mph 70% 0 in
05:50 54 °F 44.6 °F 29.4 in West 16.1 mph 22.1 mph 70% 0 in
05:55 54 °F 44.6 °F 29.4 in South 10.5 mph 19.2 mph 70% 0 in
06:00 54 °F 44.6 °F 29.4 in South 13.2 mph 19.2 mph 70% 0 in
06:05 54.1 °F 44.6 °F 29.4 in SSE 17.2 mph 20.6 mph 70% 0 in
06:10 54.1 °F 44.6 °F 29.3 in SSW 18.6 mph 22.6 mph 70% 0 in
06:15 54.1 °F 44.6 °F 29.3 in SSW 5.6 mph 22.6 mph 70% 0 in
06:20 54.1 °F 46.4 °F 29.3 in SSE 10.5 mph 19.9 mph 71% 0 in
06:25 54.5 °F 46.4 °F 29.3 in South 15.2 mph 22.4 mph 71% 0 in
06:30 54.5 °F 46.4 °F 29.3 in South 13.9 mph 22.4 mph 71% 0 in
06:40 54.5 °F 46.4 °F 29.3 in South 14.1 mph 19.7 mph 71% 0 in
06:45 54.7 °F 46.4 °F 29.3 in South 15.2 mph 21.5 mph 71% 0 in
06:51 54.9 °F 46.4 °F 29.3 in South 12.1 mph 23.7 mph 71% 0 in
06:56 55 °F 48.2 °F 29.4 in South 7.8 mph 23.7 mph 72% 0 in
07:01 55.2 °F 48.2 °F 29.4 in WSW 12.3 mph 17.7 mph 72% 0 in
07:06 55.4 °F 48.2 °F 29.4 in SSW 16.6 mph 28 mph 72% 0 in
07:11 55.8 °F 48.2 °F 29.4 in South 13.4 mph 28 mph 73% 0 in
07:16 56.1 °F 48.2 °F 29.4 in South 12.3 mph 23.9 mph 73% 0 in
07:26 56.5 °F 48.2 °F 29.4 in SSW 11 mph 25.9 mph 74% 0 in
07:31 56.5 °F 48.2 °F 29.4 in SW 23 mph 23 mph 74% 0 in
07:41 56.7 °F 50 °F 29.4 in SSW 17.7 mph 23 mph 75% 0 in
07:46 56.7 °F 50 °F 29.4 in SSW 17.7 mph 17.7 mph 76% 0 in
07:52 56.7 °F 50 °F 29.4 in SSW 17.7 mph 17.7 mph 77% 0 in
07:57 56.5 °F 50 °F 29.4 in South 11.2 mph 17.7 mph 78% 0 in
08:02 55.9 °F 50 °F 29.4 in South 15.2 mph 22.4 mph 81% 0 in
08:07 55.8 °F 51.8 °F 29.4 in SW 19 mph 25.3 mph 84% 0 in
08:12 55.4 °F 51.8 °F 29.4 in SW 15.2 mph 25.3 mph 84% 0 in
08:17 55.4 °F 51.8 °F 29.4 in South 12.8 mph 23 mph 88% 0 in
08:22 55.2 °F 53.6 °F 29.4 in SSW 16.1 mph 25.1 mph 91% 0.01 in
08:27 54.9 °F 53.6 °F 29.4 in SW 15.2 mph 25.1 mph 92% 0.01 in
08:32 54.7 °F 53.6 °F 29.4 in WSW 15.4 mph 21 mph 92% 0.02 in
08:37 54.5 °F 53.6 °F 29.4 in WSW 7.4 mph 15.4 mph 93% 0.03 in
08:42 54.3 °F 53.6 °F 29.4 in WSW 8.1 mph 15.4 mph 94% 0.03 in
08:47 54.1 °F 53.6 °F 29.4 in WSW 7.6 mph 10.7 mph 94% 0.06 in
08:52 54 °F 53.6 °F 29.4 in WSW 8.1 mph 11.9 mph 95% 0.09 in
09:02 54.1 °F 53.6 °F 29.4 in SW 5.8 mph 12.8 mph 97% 0.1 in
09:07 54.1 °F 53.6 °F 29.4 in SW 8.5 mph 15.4 mph 97% 0.1 in
09:12 54.3 °F 55.4 °F 29.4 in SW 6.7 mph 15.4 mph 98% 0.1 in
09:17 54.3 °F 55.4 °F 29.4 in SW 10.7 mph 13 mph 98% 0.1 in
09:22 54.3 °F 55.4 °F 29.4 in SSW 10.1 mph 13.2 mph 98% 0.09 in
09:27 54.3 °F 55.4 °F 29.4 in SW 10.3 mph 13.2 mph 98% 0.09 in
09:32 54.5 °F 55.4 °F 29.4 in SW 9.8 mph 15.2 mph 98% 0.09 in
09:47 54.7 °F 55.4 °F 29.4 in SW 10.1 mph 15.7 mph 98% 0.03 in
09:52 54.9 °F 55.4 °F 29.4 in SW 7.6 mph 14.8 mph 98% 0.02 in
09:57 54.9 °F 55.4 °F 29.4 in SW 8.7 mph 12.1 mph 98% 0.01 in
10:02 54.9 °F 55.4 °F 29.4 in WSW 5.6 mph 15.2 mph 98% 0.01 in
10:12 55 °F 55.4 °F 29.5 in SSW 8.5 mph 13 mph 98% 0.01 in
10:18 55.2 °F 55.4 °F 29.5 in South 11 mph 14.5 mph 98% 0.01 in
10:28 55.9 °F 55.4 °F 29.5 in SSW 11 mph 13 mph 97% 0 in
10:34 55.9 °F 55.4 °F 29.5 in South 7.6 mph 13 mph 97% 0 in
10:39 56.1 °F 55.4 °F 29.5 in SSW 8.1 mph 15.7 mph 97% 0 in
10:44 56.3 °F 55.4 °F 29.5 in SSW 9.4 mph 15.7 mph 97% 0 in
10:49 56.5 °F 55.4 °F 29.5 in SW 11 mph 12.8 mph 96% 0 in
10:54 56.7 °F 55.4 °F 29.5 in SSW 12.1 mph 19 mph 96% 0 in
10:59 56.8 °F 55.4 °F 29.5 in SSW 12.3 mph 19 mph 96% 0 in
11:09 57 °F 55.4 °F 29.5 in SW 9.8 mph 15.2 mph 95% 0 in
11:14 57 °F 55.4 °F 29.5 in SSW 12.8 mph 14.8 mph 95% 0 in
11:19 57.2 °F 55.4 °F 29.5 in SW 9.4 mph 14.3 mph 95% 0 in
11:24 57.6 °F 57.2 °F 29.5 in SW 9.8 mph 14.8 mph 95% 0 in
11:29 58.1 °F 57.2 °F 29.5 in WSW 7.8 mph 14.8 mph 95% 0 in
11:34 58.1 °F 57.2 °F 29.5 in SW 13.2 mph 17.2 mph 94% 0 in
11:49 58.1 °F 55.4 °F 29.5 in SW 10.1 mph 19.2 mph 91% 0 in
11:54 58.6 °F 55.4 °F 29.5 in SW 10.7 mph 19.2 mph 91% 0 in
12:04 59 °F 55.4 °F 29.5 in SW 10.5 mph 16.1 mph 88% 0 in
12:14 58.6 °F 55.4 °F 29.5 in WSW 25.5 mph 28.6 mph 88% 0 in
12:19 57.4 °F 55.4 °F 29.5 in WSW 26.6 mph 30.4 mph 89% 0.02 in
12:30 56.7 °F 55.4 °F 29.6 in WSW 15.4 mph 29.1 mph 92% 0.02 in
12:35 56.7 °F 55.4 °F 29.6 in WSW 21 mph 24.6 mph 93% 0.02 in
12:50 56.7 °F 55.4 °F 29.6 in SW 21.3 mph 22.4 mph 93% 0.04 in
12:55 56.7 °F 55.4 °F 29.6 in WSW 12.5 mph 26.2 mph 93% 0.04 in
13:00 56.7 °F 55.4 °F 29.6 in WSW 13 mph 26.2 mph 93% 0.04 in
13:10 55.8 °F 51.8 °F 29.6 in WSW 15.2 mph 24.4 mph 85% 0.04 in
13:15 56.7 °F 51.8 °F 29.6 in WSW 19.7 mph 22.8 mph 84% 0.03 in
13:20 56.7 °F 51.8 °F 29.6 in West 18.8 mph 25.9 mph 84% 0.01 in
13:25 56.7 °F 51.8 °F 29.6 in WSW 17.2 mph 25.9 mph 84% 0.01 in
13:30 56.7 °F 51.8 °F 29.6 in WSW 16.3 mph 23.7 mph 84% 0.01 in
13:40 56.7 °F 51.8 °F 29.6 in West 25.5 mph 27.1 mph 84% 0 in
13:45 56.7 °F 51.8 °F 29.6 in WNW 19.9 mph 26.8 mph 84% 0 in
13:50 56.7 °F 51.8 °F 29.6 in West 17 mph 27.1 mph 84% 0 in
14:05 56.7 °F 51.8 °F 29.6 in West 13.2 mph 19.5 mph 84% 0 in
14:10 54.9 °F 51.8 °F 29.6 in West 13.6 mph 17.7 mph 85% 0 in
14:16 54.9 °F 51.8 °F 29.6 in West 20.6 mph 20.6 mph 85% 0 in
14:26 54.9 °F 51.8 °F 29.6 in WSW 10.5 mph 24.2 mph 85% 0 in
14:32 54.9 °F 51.8 °F 29.6 in WSW 14.8 mph 25.3 mph 85% 0 in
14:37 54.9 °F 51.8 °F 29.6 in West 17.4 mph 25.3 mph 85% 0 in
14:42 54.9 °F 51.8 °F 29.6 in West 14.5 mph 25.1 mph 85% 0 in
14:47 54.9 °F 51.8 °F 29.6 in WSW 12.8 mph 21.9 mph 85% 0 in
14:54 54.9 °F 51.8 °F 29.6 in West 14.8 mph 23 mph 85% 0 in
14:59 54.9 °F 51.8 °F 29.6 in WSW 17 mph 22.4 mph 85% 0 in
15:04 54.9 °F 51.8 °F 29.6 in WSW 15.4 mph 22.4 mph 85% 0 in
15:09 54.3 °F 46.4 °F 29.6 in WSW 15.2 mph 22.6 mph 72% 0 in
15:14 54.1 °F 46.4 °F 29.6 in WSW 11.4 mph 22.6 mph 74% 0 in
15:19 54 °F 46.4 °F 29.6 in WSW 13.2 mph 17.9 mph 73% 0 in
15:24 54 °F 46.4 °F 29.6 in WSW 14.8 mph 22.6 mph 73% 0 in
15:30 54.1 °F 44.6 °F 29.6 in WSW 13.2 mph 22.6 mph 68% 0 in
15:35 54 °F 44.6 °F 29.6 in WSW 11.2 mph 19.7 mph 69% 0 in
15:40 53.8 °F 44.6 °F 29.6 in West 12.8 mph 19.7 mph 69% 0 in
15:45 53.6 °F 44.6 °F 29.7 in WSW 10.1 mph 19.5 mph 69% 0 in
15:47 53.1 °F 42.8 °F 29.7 in WSW 12.8 mph 19.5 mph 70% 0 in
15:52 53.1 °F 44.6 °F 29.7 in WSW 8.1 mph 17.7 mph 71% 0 in
15:57 52.9 °F 44.6 °F 29.7 in WSW 7.6 mph 16.8 mph 71% 0 in
16:02 52.5 °F 44.6 °F 29.7 in WSW 7.4 mph 14.3 mph 72% 0 in
16:07 52.2 °F 44.6 °F 29.7 in WSW 10.1 mph 12.8 mph 73% 0 in
16:12 52 °F 42.8 °F 29.7 in WSW 6.3 mph 12.8 mph 73% 0 in
16:26 52 °F 42.8 °F 29.7 in Calm   11.4 mph 73% 0 in
16:31 52 °F 42.8 °F 29.7 in WSW 6.3 mph 8.7 mph 73% 0 in
16:41 50 °F 42.8 °F 29.7 in SW 5.4 mph 7.8 mph 76% 0 in
16:42 50 °F 42.8 °F 29.7 in SW 3.8 mph 7.8 mph 76% 0 in
16:52 50 °F 42.8 °F 29.7 in SW 3.6 mph 6 mph 76% 0 in
16:57 50 °F 42.8 °F 29.7 in SW 2.7 mph 6 mph 76% 0 in
17:07 50 °F 42.8 °F 29.7 in SSW 4.5 mph 7.2 mph 76% 0 in
17:12 50 °F 42.8 °F 29.7 in Calm   7.2 mph 76% 0 in
17:17 50 °F 42.8 °F 29.7 in SSW 1.1 mph 5.6 mph 76% 0 in
17:22 50 °F 42.8 °F 29.7 in Calm   5.6 mph 76% 0 in
17:27 50 °F 42.8 °F 29.7 in Calm   4 mph 76% 0 in
17:32 50 °F 42.8 °F 29.7 in Calm   2.5 mph 76% 0 in
17:37 50 °F 42.8 °F 29.7 in Calm   2.9 mph 76% 0 in
17:42 50 °F 42.8 °F 29.7 in Calm   2.9 mph 76% 0 in
17:47 50 °F 42.8 °F 29.7 in Calm     76% 0 in
17:52 50 °F 42.8 °F 29.7 in Calm     76% 0 in
17:57 50 °F 42.8 °F 29.7 in Calm   1.3 mph 76% 0 in
18:03 50 °F 42.8 °F 29.7 in Calm   1.3 mph 76% 0 in
18:08 50 °F 42.8 °F 29.7 in Calm   0.9 mph 76% 0 in
18:13 50 °F 42.8 °F 29.7 in Calm   3.4 mph 76% 0 in
18:18 47.1 °F 42.8 °F 29.7 in SSW 2.5 mph 3.4 mph 85% 0 in
18:23 47.1 °F 42.8 °F 29.7 in SSW 1.1 mph 4 mph 85% 0 in
18:28 47.1 °F 42.8 °F 29.7 in Calm   4.7 mph 85% 0 in
18:38 47.1 °F 42.8 °F 29.7 in Calm   3.8 mph 85% 0 in
18:43 47.1 °F 42.8 °F 29.7 in Calm   3.8 mph 85% 0 in
18:48 47.1 °F 42.8 °F 29.7 in Calm   3.6 mph 85% 0 in
18:53 47.1 °F 42.8 °F 29.7 in SSW 1.3 mph 3.6 mph 85% 0 in
18:58 47.1 °F 42.8 °F 29.7 in Calm   3.1 mph 85% 0 in
19:03 46.4 °F 42.8 °F 29.7 in Calm   4 mph 88% 0 in
19:08 46.4 °F 42.8 °F 29.7 in South 2.5 mph 4 mph 88% 0 in
19:13 46.4 °F 42.8 °F 29.7 in Calm   5.8 mph 88% 0 in
19:23 46.4 °F 42.8 °F 29.7 in Calm   5.4 mph 88% 0 in
19:28 46.4 °F 42.8 °F 29.7 in South 3.4 mph 6.3 mph 88% 0 in
19:38 46.6 °F 44.6 °F 29.7 in SW 4.9 mph 6.3 mph 91% 0 in
19:43 46.8 °F 44.6 °F 29.7 in Calm   7.8 mph 91% 0 in
19:48 46.8 °F 44.6 °F 29.7 in South 3.6 mph 7.8 mph 91% 0 in
19:53 46.8 °F 44.6 °F 29.7 in SSW 3.1 mph 5.8 mph 91% 0 in
19:58 46.9 °F 44.6 °F 29.7 in Calm   6 mph 92% 0 in
20:13 47.3 °F 46.4 °F 29.7 in SSW 4.3 mph 5.8 mph 93% 0 in
20:18 47.5 °F 46.4 °F 29.7 in Calm   5.8 mph 92% 0 in
20:23 47.3 °F 46.4 °F 29.7 in Calm   5.8 mph 92% 0 in
20:28 47.3 °F 46.4 °F 29.7 in Calm   5.6 mph 92% 0 in
20:33 47.3 °F 46.4 °F 29.7 in South 3.8 mph 5.6 mph 92% 0 in
20:53 47.3 °F 46.4 °F 29.8 in Calm   6.5 mph 92% 0 in
20:58 47.3 °F 46.4 °F 29.8 in SSW 2.2 mph 5.4 mph 92% 0 in
21:03 47.1 °F 46.4 °F 29.8 in SSW 2.5 mph 4.3 mph 93% 0 in
21:14 47.1 °F 44.6 °F 29.8 in SSW 4.5 mph 4.9 mph 92% 0 in
21:19 47.1 °F 44.6 °F 29.8 in SW 3.1 mph 5.8 mph 92% 0 in
21:24 47.1 °F 44.6 °F 29.8 in SSW 4 mph 6.5 mph 92% 0 in
21:39 47.1 °F 44.6 °F 29.8 in SW 4.9 mph 7.4 mph 92% 0 in
21:44 47.1 °F 44.6 °F 29.8 in South 6.3 mph 7.4 mph 92% 0 in
21:59 48 °F 46.4 °F 29.8 in SW 2.9 mph 7.2 mph 92% 0 in
22:04 48 °F 46.4 °F 29.8 in SSW 3.1 mph 7.6 mph 92% 0 in
22:10 48 °F 46.4 °F 29.8 in SW 6.5 mph 6.5 mph 92% 0 in
22:15 48 °F 46.4 °F 29.8 in SSW 3.4 mph 8.1 mph 92% 0 in
22:25 48 °F 46.4 °F 29.8 in SW 5.6 mph 6.3 mph 92% 0 in
22:35 48 °F 46.4 °F 29.8 in SSW 6 mph 6 mph 89% 0 in
22:40 47.7 °F 44.6 °F 29.8 in SSW 0.9 mph 6.3 mph 88% 0 in
22:45 47.7 °F 44.6 °F 29.8 in Calm   6.3 mph 88% 0 in
22:50 47.7 °F 44.6 °F 29.8 in SSW 2.5 mph 6.3 mph 88% 0 in
23:10 47.3 °F 44.6 °F 29.7 in South 2.5 mph 3.4 mph 88% 0 in
23:15 46.8 °F 42.8 °F 29.7 in SSW 0.9 mph 5.8 mph 87% 0 in
23:20 46.8 °F 42.8 °F 29.7 in South 2.7 mph 5.8 mph 87% 0 in
23:25 46.8 °F 42.8 °F 29.7 in Calm   4.3 mph 87% 0 in
23:30 46.8 °F 44.6 °F 29.7 in Calm   4.3 mph 89% 0 in
23:35 46.9 °F 44.6 °F 29.7 in Calm   3.6 mph 90% 0 in
23:40 47.1 °F 44.6 °F 29.7 in Calm   5.4 mph 90% 0 in
23:45 47.3 °F 44.6 °F 29.7 in Calm   5.4 mph 90% 0 in
23:50 47.3 °F 44.6 °F 29.7 in SW 3.4 mph 5.4 mph 90% 0 in
23:55 47.7 °F 44.6 °F 29.7 in SSW 3.4 mph 5.6 mph 90% 0 in
Données Historique de Météo Turbie

Mise a jour : 22/05/2018 04:24:13
Généré par Cumulus 1.9.4 (1099)